Time;durP1;ratioP1;P1;durP2;ratioP2;P2;SDS_P1;SDS_P2;PMS_P1;PMS_P2;Temp;Humidity;BMP_temperature;BMP_pressure;BME280_temperature;BME280_humidity;BME280_pressure;Samples;Min_cycle;Max_cycle;Signal;HPM_P1;HPM_P2
2023/03/26 00:01:20;;;;;;;0.20;0.20;;;;;;;12.53;100.00;100212.41;5052398;28;20144;-64
2023/03/26 00:03:46;;;;;;;0.20;0.20;;;;;;;12.38;100.00;100209.78;5053518;28;20092;-63
2023/03/26 00:06:15;;;;;;;0.20;0.20;;;;;;;12.31;100.00;100205.69;5052469;28;20098;-63
2023/03/26 00:08:43;;;;;;;0.20;0.20;;;;;;;12.39;100.00;100203.00;5052349;28;20025;-62
2023/03/26 00:11:13;;;;;;;0.30;0.30;;;;;;;12.38;100.00;100199.41;5052707;28;20037;-63
2023/03/26 00:13:42;;;;;;;0.20;0.20;;;;;;;12.27;100.00;100195.66;5054023;28;20064;-62
2023/03/26 00:16:12;;;;;;;0.20;0.20;;;;;;;12.23;100.00;100205.94;5052975;28;20032;-63
2023/03/26 00:18:39;;;;;;;0.20;0.20;;;;;;;12.22;100.00;100196.75;5052616;28;20463;-63
2023/03/26 00:21:17;;;;;;;0.20;0.20;;;;;;;12.26;100.00;100194.84;5053375;28;20044;-62
2023/03/26 00:23:47;;;;;;;0.20;0.20;;;;;;;12.17;100.00;100193.50;5053316;28;20025;-63
2023/03/26 00:26:14;;;;;;;0.20;0.20;;;;;;;12.16;100.00;100211.41;5052577;28;20110;-63
2023/03/26 00:28:41;;;;;;;0.20;0.20;;;;;;;12.21;100.00;100194.34;5052215;28;20025;-64
2023/03/26 00:31:11;;;;;;;0.20;0.20;;;;;;;12.25;100.00;100195.19;5052768;28;20379;-66
2023/03/26 00:33:42;;;;;;;0.30;0.30;;;;;;;12.16;100.00;100186.31;5052766;28;20063;-63
2023/03/26 00:36:16;;;;;;;0.20;0.20;;;;;;;12.19;100.00;100189.13;5052768;28;20036;-63
2023/03/26 00:38:41;;;;;;;;;;;;;;;12.19;100.00;100191.13;5053858;28;20040;-64
2023/03/26 00:41:21;;;;;;;0.20;0.20;;;;;;;12.22;100.00;100190.38;5068868;28;19908;-63
2023/03/26 00:43:55;;;;;;;0.20;0.20;;;;;;;12.30;100.00;100197.69;5052194;28;20032;-63
2023/03/26 00:46:21;;;;;;;;;;;;;;;12.28;100.00;100195.28;5054439;28;20021;-62
2023/03/26 00:48:51;;;;;;;0.20;0.20;;;;;;;12.36;100.00;100189.78;5068737;28;19912;-63
2023/03/26 00:51:18;;;;;;;0.20;0.20;;;;;;;12.32;100.00;100184.97;5052610;28;20490;-62
2023/03/26 00:53:45;;;;;;;0.28;0.28;;;;;;;12.37;100.00;100191.44;5051727;28;20021;-63
2023/03/26 00:56:14;;;;;;;0.20;0.20;;;;;;;12.42;100.00;100189.13;5052017;28;20475;-62
2023/03/26 00:58:43;;;;;;;0.20;0.20;;;;;;;12.46;100.00;100183.56;5052268;28;20360;-63
2023/03/26 01:01:17;;;;;;;0.20;0.20;;;;;;;12.45;100.00;100188.34;5064512;28;20067;-62
2023/03/26 01:03:46;;;;;;;0.20;0.20;;;;;;;12.49;100.00;100177.25;5073257;28;20028;-63
2023/03/26 01:06:26;;;;;;;0.20;0.20;;;;;;;12.51;100.00;100172.88;5072535;28;20374;-63
2023/03/26 01:08:53;;;;;;;0.20;0.20;;;;;;;12.57;100.00;100160.25;5073120;28;20371;-63
2023/03/26 01:11:24;;;;;;;0.30;0.30;;;;;;;12.61;100.00;100165.84;5071955;28;20094;-62
2023/03/26 01:13:58;;;;;;;0.20;0.20;;;;;;;12.60;100.00;100167.03;5071849;28;20021;-63
2023/03/26 01:16:30;;;;;;;0.30;0.30;;;;;;;12.60;100.00;100161.47;5074994;28;20391;-63
2023/03/26 01:18:57;;;;;;;0.20;0.20;;;;;;;12.66;100.00;100159.16;5075551;28;20021;-63
2023/03/26 01:21:28;;;;;;;0.20;0.20;;;;;;;12.70;100.00;100165.59;5075471;28;20024;-62
2023/03/26 01:24:08;;;;;;;0.20;0.20;;;;;;;12.70;100.00;100160.00;5076025;28;20046;-62
2023/03/26 01:26:51;;;;;;;0.20;0.20;;;;;;;12.67;100.00;100163.53;5075990;28;20036;-62
2023/03/26 01:29:51;;;;;;;0.20;0.20;;;;;;;12.58;100.00;100155.47;5075285;28;20032;-63
2023/03/26 01:32:44;;;;;;;0.20;0.20;;;;;;;12.52;100.00;100143.03;5032530;28;20269;-63
2023/03/26 01:35:53;;;;;;;0.28;0.28;;;;;;;12.36;100.00;100114.47;5075827;28;20039;-63
2023/03/26 01:38:27;;;;;;;0.20;0.20;;;;;;;12.69;100.00;100147.25;5014558;28;20128;-63
2023/03/26 01:41:06;;;;;;;0.20;0.20;;;;;;;12.50;100.00;100148.97;5014346;28;20034;-63
2023/03/26 01:43:39;;;;;;;0.20;0.20;;;;;;;12.83;100.00;100150.19;5063495;28;20124;-64
2023/03/26 01:46:10;;;;;;;0.20;0.20;;;;;;;12.81;100.00;100142.22;5077086;28;20485;-63
2023/03/26 01:48:38;;;;;;;0.20;0.20;;;;;;;12.69;100.00;100136.06;5076413;28;20491;-63
2023/03/26 01:51:07;;;;;;;0.20;0.20;;;;;;;12.53;100.00;100139.03;5075287;28;20093;-63
2023/03/26 01:53:37;;;;;;;0.20;0.20;;;;;;;12.54;100.00;100132.28;5076772;28;20467;-63
2023/03/26 01:56:24;;;;;;;0.20;0.20;;;;;;;12.51;100.00;100133.81;5077228;28;20467;-64
2023/03/26 01:59:21;;;;;;;0.30;0.30;;;;;;;12.39;100.00;100131.25;5075105;28;20502;-63
2023/03/26 02:01:53;;;;;;;0.30;0.30;;;;;;;12.29;100.00;100129.91;5056411;28;20450;-63
2023/03/26 02:04:40;;;;;;;0.20;0.20;;;;;;;12.16;100.00;100133.31;5055278;28;20028;-63
2023/03/26 02:07:13;;;;;;;0.30;0.30;;;;;;;12.25;100.00;100128.25;5054706;28;20036;-62
2023/03/26 02:09:48;;;;;;;0.20;0.20;;;;;;;12.10;100.00;100126.44;5054565;28;20030;-63
2023/03/26 02:12:21;;;;;;;0.20;0.20;;;;;;;12.00;100.00;100128.69;5055094;28;20450;-63
2023/03/26 02:14:46;;;;;;;0.20;0.20;;;;;;;11.96;100.00;100136.19;5055512;28;20154;-62
2023/03/26 02:17:15;;;;;;;0.20;0.20;;;;;;;11.90;100.00;100129.31;5054465;28;20120;-63
2023/03/26 02:19:43;;;;;;;0.30;0.30;;;;;;;11.89;100.00;100127.72;5054479;28;20029;-62
2023/03/26 02:22:14;;;;;;;0.20;0.20;;;;;;;11.88;100.00;100119.69;5055916;28;20136;-62
2023/03/26 02:24:42;;;;;;;0.20;0.20;;;;;;;11.87;100.00;100124.47;5054346;28;20033;-63
2023/03/26 02:27:12;;;;;;;0.20;0.20;;;;;;;11.90;100.00;100118.16;5055242;28;20025;-62
2023/03/26 02:29:40;;;;;;;0.30;0.30;;;;;;;11.76;100.00;100106.72;5054175;28;20059;-62
2023/03/26 02:32:07;;;;;;;0.20;0.20;;;;;;;11.76;100.00;100106.72;5054189;28;20033;-62
2023/03/26 02:34:35;;;;;;;0.20;0.20;;;;;;;11.74;100.00;100093.19;5054132;28;20017;-63
2023/03/26 02:37:03;;;;;;;0.20;0.20;;;;;;;11.83;100.00;100094.94;5054092;28;20033;-63
2023/03/26 02:39:31;;;;;;;0.30;0.30;;;;;;;11.78;100.00;100087.66;5054085;28;20029;-63
2023/03/26 02:41:56;;;;;;;0.20;0.20;;;;;;;11.72;100.00;100100.31;5054256;28;20175;-63
2023/03/26 02:44:27;;;;;;;0.20;0.20;;;;;;;11.69;100.00;100095.47;5054206;28;20458;-63
2023/03/26 02:46:55;;;;;;;0.20;0.20;;;;;;;11.64;100.00;100093.00;5054735;28;20025;-63
2023/03/26 02:49:20;;;;;;;0.30;0.30;;;;;;;11.57;100.00;100093.69;5053796;28;20036;-62
2023/03/26 02:51:51;;;;;;;0.20;0.20;;;;;;;11.53;100.00;100082.47;5053880;28;20037;-63
2023/03/26 02:54:19;;;;;;;0.20;0.20;;;;;;;11.56;100.00;100083.72;5054359;28;20025;-63
2023/03/26 02:56:46;;;;;;;0.30;0.30;;;;;;;11.57;100.00;100082.53;5053728;28;20029;-63
2023/03/26 02:59:13;;;;;;;0.20;0.20;;;;;;;11.55;100.00;100079.31;5054566;28;20384;-63
2023/03/26 03:01:41;;;;;;;0.20;0.20;;;;;;;11.55;100.00;100073.72;5053293;28;20488;-62
2023/03/26 03:04:09;;;;;;;0.20;0.20;;;;;;;11.47;100.00;100072.81;5053926;28;20104;-64
2023/03/26 03:06:41;;;;;;;0.30;0.30;;;;;;;11.48;100.00;100076.41;5053803;28;20407;-62
2023/03/26 03:09:11;;;;;;;0.30;0.30;;;;;;;11.45;100.00;100077.13;5053460;28;20531;-65
2023/03/26 03:11:40;;;;;;;0.20;0.20;;;;;;;11.50;100.00;100077.66;5053697;28;20025;-63
2023/03/26 03:14:08;;;;;;;0.20;0.20;;;;;;;11.43;100.00;100085.88;5053395;28;20061;-62
2023/03/26 03:16:34;;;;;;;0.20;0.20;;;;;;;11.44;100.00;100072.75;5053330;28;20088;-63
2023/03/26 03:19:01;;;;;;;0.20;0.20;;;;;;;11.47;100.00;100069.22;5053291;28;20033;-64
2023/03/26 03:21:28;;;;;;;0.20;0.20;;;;;;;11.45;100.00;100075.19;5054045;28;20460;-62
2023/03/26 03:23:59;;;;;;;0.30;0.30;;;;;;;11.24;100.00;100064.47;5053215;28;20032;-62
2023/03/26 03:26:28;;;;;;;0.20;0.20;;;;;;;11.21;100.00;100073.53;5053734;28;20021;-63
2023/03/26 03:28:56;;;;;;;0.20;0.20;;;;;;;11.25;100.00;100080.00;5053010;28;20123;-63
2023/03/26 03:31:27;;;;;;;0.20;0.20;;;;;;;11.14;100.00;100076.19;5053043;28;20025;-62
2023/03/26 03:33:58;;;;;;;0.30;0.30;;;;;;;11.12;100.00;100077.72;5052999;28;20028;-63
2023/03/26 03:36:29;;;;;;;0.20;0.20;;;;;;;11.05;100.00;100072.03;5053564;28;20376;-62
2023/03/26 03:38:54;;;;;;;0.20;0.20;;;;;;;11.08;100.00;100066.53;5053637;28;20025;-62
2023/03/26 03:41:23;;;;;;;0.20;0.20;;;;;;;10.95;100.00;100074.25;5052912;28;20039;-63
2023/03/26 03:43:50;;;;;;;0.30;0.30;;;;;;;10.93;100.00;100071.03;5052812;28;20025;-63
2023/03/26 03:46:18;;;;;;;0.20;0.20;;;;;;;10.88;100.00;100076.91;5053373;28;20029;-63
2023/03/26 03:48:48;;;;;;;0.20;0.20;;;;;;;10.94;100.00;100078.19;5052702;28;20101;-62
2023/03/26 03:51:17;;;;;;;0.30;0.30;;;;;;;10.76;100.00;100065.91;5052741;28;20109;-62
2023/03/26 03:53:46;;;;;;;0.20;0.20;;;;;;;10.80;100.00;100080.69;5053592;28;20036;-62
2023/03/26 03:56:13;;;;;;;0.30;0.30;;;;;;;10.80;100.00;100072.34;5053244;28;20029;-63
2023/03/26 03:58:44;;;;;;;0.20;0.20;;;;;;;10.69;100.00;100071.31;5052632;28;20021;-63
2023/03/26 04:01:14;;;;;;;0.20;0.20;;;;;;;10.69;100.00;100065.75;5052374;28;20057;-62
2023/03/26 04:03:45;;;;;;;0.30;0.30;;;;;;;10.60;100.00;100068.78;5052559;28;20025;-64
2023/03/26 04:06:11;;;;;;;0.30;0.30;;;;;;;10.77;100.00;100075.06;5052240;28;20074;-63
2023/03/26 04:08:40;;;;;;;0.25;0.25;;;;;;;10.65;100.00;100070.44;5052403;28;20029;-63
2023/03/26 04:11:10;;;;;;;0.20;0.20;;;;;;;10.68;100.00;100069.72;5054548;28;20075;-63
2023/03/26 04:13:41;;;;;;;0.20;0.20;;;;;;;10.64;100.00;100069.63;5053389;28;20041;-62
2023/03/26 04:16:09;;;;;;;0.25;0.25;;;;;;;10.75;100.00;100065.09;5052969;28;20041;-63
2023/03/26 04:18:37;;;;;;;0.28;0.28;;;;;;;10.83;100.00;100060.50;5052651;28;20021;-63
2023/03/26 04:21:06;;;;;;;0.22;0.22;;;;;;;10.77;100.00;100063.94;5053624;28;20108;-63
2023/03/26 04:23:37;;;;;;;0.30;0.30;;;;;;;10.72;100.00;100068.63;5053963;28;20025;-62
2023/03/26 04:26:15;;;;;;;0.20;0.20;;;;;;;10.77;100.00;100073.09;5052840;28;20033;-63
2023/03/26 04:28:46;;;;;;;0.20;0.20;;;;;;;10.80;100.00;100072.34;5052307;28;20083;-62
2023/03/26 04:31:15;;;;;;;0.30;0.30;;;;;;;10.80;100.00;100066.78;5053140;28;20119;-63
2023/03/26 04:33:45;;;;;;;0.20;0.20;;;;;;;10.86;100.00;100070.88;5052765;28;20036;-63
2023/03/26 04:36:12;;;;;;;0.20;0.20;;;;;;;10.79;100.00;100062.38;5052817;28;20036;-63
2023/03/26 04:38:44;;;;;;;0.20;0.20;;;;;;;10.83;100.00;100068.84;5052543;28;20021;-63
2023/03/26 04:41:14;;;;;;;0.20;0.20;;;;;;;10.90;100.00;100071.75;5052724;28;20448;-63
2023/03/26 04:43:46;;;;;;;0.20;0.20;;;;;;;10.90;100.00;100071.75;5052454;28;20029;-63
2023/03/26 04:46:22;;;;;;;0.30;0.30;;;;;;;10.91;100.00;100081.72;5052578;28;20120;-63
2023/03/26 04:48:53;;;;;;;0.20;0.20;;;;;;;11.08;100.00;100085.22;5054198;28;20029;-63
2023/03/26 04:51:25;;;;;;;0.20;0.20;;;;;;;11.06;100.00;100087.56;5055607;28;20043;-63
2023/03/26 04:53:59;;;;;;;0.20;0.20;;;;;;;11.07;100.00;100078.03;5056176;28;20036;-63
2023/03/26 04:56:38;;;;;;;0.30;0.30;;;;;;;10.91;100.00;100045.53;5058077;28;20459;-62
2023/03/26 04:59:13;;;;;;;0.20;0.20;;;;;;;11.09;100.00;100078.50;5055976;28;20029;-63
2023/03/26 05:01:40;;;;;;;0.20;0.20;;;;;;;11.15;100.00;100077.81;5055489;28;20127;-62
2023/03/26 05:04:06;;;;;;;0.30;0.30;;;;;;;11.14;100.00;100072.63;5055880;28;20029;-63
2023/03/26 05:06:33;;;;;;;0.30;0.30;;;;;;;11.38;100.00;100072.25;5055802;28;20091;-65
2023/03/26 05:09:02;;;;;;;0.20;0.20;;;;;;;11.33;100.00;100072.56;5056094;28;20103;-63
2023/03/26 05:11:28;;;;;;;0.20;0.20;;;;;;;11.38;100.00;100075.03;5055732;28;20483;-65
2023/03/26 05:13:55;;;;;;;0.20;0.20;;;;;;;11.74;100.00;100072.88;5055721;28;20025;-63
2023/03/26 05:16:23;;;;;;;0.20;0.20;;;;;;;12.10;100.00;100065.09;5056228;28;20041;-63
2023/03/26 05:18:53;;;;;;;0.20;0.20;;;;;;;12.68;100.00;100073.88;5055608;28;20041;-63
2023/03/26 05:21:21;;;;;;;0.30;0.30;;;;;;;13.33;100.00;100075.41;5056215;28;20065;-64
2023/03/26 05:23:47;;;;;;;0.30;0.30;;;;;;;13.89;98.79;100080.69;5055843;28;20431;-63
2023/03/26 05:26:15;;;;;;;0.20;0.20;;;;;;;14.42;93.59;100091.44;5056972;28;20033;-63
2023/03/26 05:28:44;;;;;;;0.20;0.20;;;;;;;14.81;86.00;100085.28;5055950;28;20027;-64
2023/03/26 05:31:16;;;;;;;0.30;0.30;;;;;;;15.24;86.04;100095.81;5056186;28;20106;-63
2023/03/26 05:33:42;;;;;;;0.20;0.20;;;;;;;15.45;83.96;100090.25;5056327;28;20025;-63
2023/03/26 05:36:14;;;;;;;0.20;0.20;;;;;;;16.22;82.16;100094.28;5055342;28;20033;-63
2023/03/26 05:38:51;;;;;;;0.20;0.20;;;;;;;16.99;78.58;100090.84;5055095;28;20025;-65
2023/03/26 05:41:17;;;;;;;0.20;0.20;;;;;;;17.55;73.58;100100.19;5055099;28;20475;-62
2023/03/26 05:43:47;;;;;;;0.25;0.25;;;;;;;17.82;68.04;100110.88;5054999;28;20025;-63
2023/03/26 05:46:15;;;;;;;0.20;0.20;;;;;;;17.43;68.92;100103.50;5056730;28;20028;-62
2023/03/26 05:48:43;;;;;;;0.20;0.20;;;;;;;16.71;73.14;100109.44;5054963;28;20067;-62
2023/03/26 05:51:11;;;;;;;0.20;0.20;;;;;;;17.17;72.87;100108.44;5055518;28;20072;-63
2023/03/26 05:53:39;;;;;;;0.20;0.20;;;;;;;17.74;70.67;100113.75;5055037;28;20364;-64
2023/03/26 05:56:05;;;;;;;0.20;0.20;;;;;;;17.63;67.50;100110.19;5054794;28;20079;-62
2023/03/26 05:58:32;;;;;;;0.20;0.20;;;;;;;17.97;66.73;100118.00;5055006;28;20028;-63
2023/03/26 06:01:07;;;;;;;0.20;0.20;;;;;;;18.55;64.58;100117.03;5078011;28;20044;-63
2023/03/26 06:03:35;;;;;;;0.20;0.20;;;;;;;18.67;60.94;100121.31;5095269;28;20111;-63
2023/03/26 06:06:05;;;;;;;0.20;0.20;;;;;;;18.58;60.35;100126.66;5077802;28;20048;-64
2023/03/26 06:08:32;;;;;;;0.20;0.20;;;;;;;19.20;61.51;100131.19;5077833;28;20032;-64
2023/03/26 06:11:06;;;;;;;0.20;0.20;;;;;;;19.55;59.87;100129.91;5078431;28;20055;-65
2023/03/26 06:13:35;;;;;;;0.20;0.20;;;;;;;20.06;57.58;100129.94;5077737;28;20087;-63
2023/03/26 06:16:00;;;;;;;0.20;0.20;;;;;;;20.55;56.04;100133.94;5077686;28;20043;-63
2023/03/26 06:18:26;;;;;;;0.20;0.20;;;;;;;20.87;54.45;100133.31;5077704;28;20032;-63
2023/03/26 06:20:55;;;;;;;0.20;0.20;;;;;;;20.48;53.86;100138.94;5078204;28;20028;-63
2023/03/26 06:23:22;;;;;;;0.20;0.20;;;;;;;20.44;53.12;100135.34;5077577;28;20025;-64
2023/03/26 06:25:50;;;;;;;0.20;0.20;;;;;;;20.79;52.25;100128.25;5077519;28;20028;-63
2023/03/26 06:28:16;;;;;;;0.20;0.20;;;;;;;20.69;51.89;100135.69;5078021;28;20330;-63
2023/03/26 06:30:42;;;;;;;0.20;0.20;;;;;;;20.18;51.88;100142.66;5094247;28;20024;-63
2023/03/26 06:33:08;;;;;;;0.20;0.20;;;;;;;20.32;53.41;100150.88;5077651;28;20040;-64
2023/03/26 06:35:33;;;;;;;0.20;0.20;;;;;;;20.06;53.12;100141.25;5077340;28;20451;-63
2023/03/26 06:38:06;;;;;;;0.20;0.20;;;;;;;19.17;56.53;100137.66;5077323;28;20398;-63
2023/03/26 06:40:35;;;;;;;0.20;0.20;;;;;;;19.26;58.18;100140.78;5095749;28;20036;-63
2023/03/26 06:43:01;;;;;;;0.20;0.20;;;;;;;19.50;55.02;100138.06;5077166;28;20020;-64
2023/03/26 06:45:32;;;;;;;0.20;0.20;;;;;;;19.65;55.68;100130.97;5095011;28;20040;-63
2023/03/26 06:48:02;;;;;;;0.20;0.20;;;;;;;19.97;53.92;100135.31;5077314;28;20115;-63
2023/03/26 06:50:30;;;;;;;0.20;0.20;;;;;;;19.85;53.86;100143.16;5077491;28;20034;-63
2023/03/26 06:52:56;;;;;;;0.20;0.20;;;;;;;19.99;52.26;100144.19;5077519;28;20386;-63
2023/03/26 06:55:25;;;;;;;0.20;0.20;;;;;;;20.49;52.27;100149.00;5077262;28;20135;-64
2023/03/26 06:57:52;;;;;;;0.20;0.20;;;;;;;20.09;50.51;100154.50;5076890;28;20028;-64
2023/03/26 07:00:18;;;;;;;0.20;0.20;;;;;;;20.75;52.24;100153.75;5068144;28;20075;-64
2023/03/26 07:02:44;;;;;;;0.20;0.20;;;;;;;20.64;48.74;100158.81;5055071;28;20033;-64
2023/03/26 07:05:12;;;;;;;0.20;0.20;;;;;;;20.79;49.19;100162.19;5053350;28;20028;-63
2023/03/26 07:07:38;;;;;;;0.20;0.20;;;;;;;21.16;47.58;100169.53;5053544;28;20426;-61
2023/03/26 07:10:04;;;;;;;0.20;0.20;;;;;;;21.82;47.53;100165.66;5053382;28;20115;-64
2023/03/26 07:12:32;;;;;;;0.20;0.20;;;;;;;22.30;46.01;100172.59;5053082;28;20091;-64
2023/03/26 07:15:00;;;;;;;0.10;0.10;;;;;;;22.42;43.36;100163.38;5053223;28;20032;-64
2023/03/26 07:17:29;;;;;;;0.20;0.20;;;;;;;22.42;43.00;100157.72;5053076;28;20472;-63
2023/03/26 07:19:54;;;;;;;0.10;0.10;;;;;;;21.51;46.28;100164.34;5053416;28;20036;-65
2023/03/26 07:22:22;;;;;;;0.20;0.20;;;;;;;21.39;47.67;100158.13;5053374;28;20434;-62
2023/03/26 07:24:50;;;;;;;0.20;0.20;;;;;;;21.65;47.03;100164.03;5053330;28;20097;-65
2023/03/26 07:27:46;;;;;;;0.20;0.20;;;;;;;21.19;47.56;100162.97;5054566;28;20029;-65
2023/03/26 07:30:18;;;;;;;0.20;0.20;;;;;;;21.08;49.40;100165.22;5053510;28;20033;-64
2023/03/26 07:32:52;;;;;;;0.20;0.20;;;;;;;20.58;49.86;100157.72;5052863;28;20029;-63
2023/03/26 07:35:26;;;;;;;;;;;;;;;20.74;50.32;100160.66;5053133;28;20029;-64
2023/03/26 07:38:16;;;;;;;0.20;0.20;;;;;;;20.45;51.30;100154.69;5069967;28;20236;-64
2023/03/26 07:41:09;;;;;;;0.20;0.20;;;;;;;21.10;48.97;100155.09;5052769;28;20055;-65
2023/03/26 07:43:56;;;;;;;0.20;0.20;;;;;;;20.48;50.19;100153.84;5052769;28;20028;-64
2023/03/26 07:46:28;;;;;;;0.20;0.20;;;;;;;20.49;50.74;100160.31;5053531;28;20041;-62
2023/03/26 07:48:57;;;;;;;0.20;0.20;;;;;;;19.71;51.68;100163.16;5052778;28;20494;-64
2023/03/26 07:51:25;;;;;;;0.20;0.20;;;;;;;19.19;54.42;100160.63;5054396;28;20029;-63
2023/03/26 07:53:58;;;;;;;0.20;0.20;;;;;;;20.36;53.27;100175.03;5052813;28;20056;-63
2023/03/26 07:57:01;;;;;;;0.20;0.20;;;;;;;20.57;49.46;100184.41;5053076;28;20463;-63
2023/03/26 07:59:37;;;;;;;0.20;0.20;;;;;;;20.56;50.89;100168.66;5052481;28;20131;-63
2023/03/26 08:02:20;;;;;;;0.20;0.20;;;;;;;20.31;50.60;100172.69;5075659;28;20059;-62
2023/03/26 08:04:48;;;;;;;0.20;0.20;;;;;;;19.99;53.56;100144.19;5076591;28;20423;-63
2023/03/26 08:07:47;;;;;;;0.20;0.20;;;;;;;20.24;51.43;100167.19;5076004;28;20097;-62
2023/03/26 08:10:40;;;;;;;0.20;0.20;;;;;;;21.27;47.79;100164.44;5092345;28;20031;-65
2023/03/26 08:13:27;;;;;;;0.20;0.20;;;;;;;22.23;46.88;100161.47;5092515;28;20024;-64
2023/03/26 08:16:11;;;;;;;0.20;0.20;;;;;;;21.53;47.76;100159.06;5075605;28;20027;-63
2023/03/26 08:18:47;;;;;;;0.20;0.20;;;;;;;22.26;44.50;100166.22;5075478;28;20089;-62
2023/03/26 08:21:26;;;;;;;0.20;0.20;;;;;;;21.92;45.80;100164.59;5092679;28;20039;-64
2023/03/26 08:24:04;;;;;;;0.20;0.20;;;;;;;21.77;43.35;100169.00;5075419;28;20493;-63
2023/03/26 08:26:44;;;;;;;0.20;0.20;;;;;;;21.63;44.33;100166.53;5074964;28;20040;-63
2023/03/26 08:29:34;;;;;;;0.20;0.20;;;;;;;20.99;45.91;100163.00;5092633;28;20488;-64
2023/03/26 08:32:04;;;;;;;0.20;0.20;;;;;;;21.28;45.96;100143.38;5076002;28;20136;-63
2023/03/26 08:34:29;;;;;;;0.20;0.20;;;;;;;22.12;44.81;100138.28;5075814;28;20036;-64
2023/03/26 08:36:58;;;;;;;0.20;0.20;;;;;;;21.40;43.76;100151.22;5075596;28;20051;-63
2023/03/26 08:39:25;;;;;;;0.20;0.20;;;;;;;22.27;42.71;100156.50;5075899;28;20366;-63
2023/03/26 08:42:03;;;;;;;0.20;0.20;;;;;;;23.08;42.56;100151.91;5075306;28;20066;-63
2023/03/26 08:44:49;;;;;;;0.20;0.20;;;;;;;22.40;41.50;100148.06;5075398;28;20024;-63
2023/03/26 08:47:43;;;;;;;0.20;0.20;;;;;;;22.96;40.94;100150.63;5075830;28;20024;-63
2023/03/26 08:50:29;;;;;;;0.20;0.20;;;;;;;20.95;45.67;100142.47;5075877;28;20122;-63
2023/03/26 08:53:01;;;;;;;0.20;0.20;;;;;;;20.73;45.17;100139.25;5092010;28;20024;-64
2023/03/26 08:55:52;;;;;;;0.20;0.20;;;;;;;20.77;45.70;100134.31;5075124;28;20063;-63
2023/03/26 08:58:33;;;;;;;0.20;0.20;;;;;;;20.81;46.66;100143.53;5075477;28;20483;-63
2023/03/26 09:01:10;;;;;;;0.20;0.20;;;;;;;22.10;42.29;100149.19;5060617;28;20403;-63
2023/03/26 09:03:57;;;;;;;0.20;0.20;;;;;;;21.82;42.00;100145.03;5051851;28;20086;-63
2023/03/26 09:06:32;;;;;;;0.20;0.20;;;;;;;21.21;43.19;100137.88;5051699;28;20033;-63
2023/03/26 09:09:31;;;;;;;0.20;0.20;;;;;;;21.26;42.82;100136.59;5051880;28;20424;-64
2023/03/26 09:12:00;;;;;;;0.20;0.20;;;;;;;20.60;43.91;100136.25;5051429;28;20025;-62
2023/03/26 09:14:34;;;;;;;0.20;0.20;;;;;;;20.59;44.19;100131.06;5051604;28;20024;-63
2023/03/26 09:17:22;;;;;;;0.20;0.20;;;;;;;19.81;45.29;100138.81;5051685;28;20039;-63
2023/03/26 09:20:15;;;;;;;0.20;0.20;;;;;;;20.06;44.96;100127.91;5051939;28;20032;-63
2023/03/26 09:23:04;;;;;;;0.13;0.13;;;;;;;20.59;44.35;100133.88;5052393;28;20136;-63
2023/03/26 09:26:17;;;;;;;0.20;0.20;;;;;;;21.54;42.48;100129.50;5051478;28;20032;-64
2023/03/26 09:29:24;;;;;;;0.20;0.20;;;;;;;21.94;42.47;100119.66;5008082;28;20044;-63
2023/03/26 09:31:59;;;;;;;0.20;0.20;;;;;;;20.52;45.07;100131.19;4988043;28;20267;-63
2023/03/26 09:35:02;;;;;;;0.20;0.20;;;;;;;20.60;45.49;100132.63;5051493;28;20074;-62
2023/03/26 09:37:45;;;;;;;0.20;0.20;;;;;;;20.87;44.68;100119.16;5052568;28;20029;-63
2023/03/26 09:40:21;;;;;;;0.20;0.20;;;;;;;20.38;44.97;100127.34;5055200;28;20048;-62
2023/03/26 09:43:00;;;;;;;0.20;0.20;;;;;;;20.90;44.56;100121.16;5054680;28;20045;-63
2023/03/26 09:45:30;;;;;;;0.20;0.20;;;;;;;20.67;44.43;100132.53;5054976;28;20479;-63
2023/03/26 09:48:04;;;;;;;0.20;0.20;;;;;;;20.15;44.78;100107.59;5054996;28;20028;-63
2023/03/26 09:50:51;;;;;;;0.20;0.20;;;;;;;20.13;45.83;100126.97;5054616;28;20479;-63
2023/03/26 09:53:23;;;;;;;0.20;0.20;;;;;;;20.27;45.73;100120.31;5054816;28;20032;-63
2023/03/26 09:56:15;;;;;;;0.20;0.20;;;;;;;19.72;46.40;100118.81;5055024;28;20078;-63
2023/03/26 09:58:43;;;;;;;0.20;0.20;;;;;;;19.48;46.42;100109.44;5054354;28;20020;-62
2023/03/26 10:01:41;;;;;;;0.20;0.20;;;;;;;19.74;47.06;100108.66;5054298;28;20055;-62
2023/03/26 10:04:26;;;;;;;0.20;0.20;;;;;;;19.40;47.66;100116.44;5055178;28;20345;-64
2023/03/26 10:07:02;;;;;;;0.20;0.20;;;;;;;19.95;46.98;100109.56;5054692;28;20033;-63
2023/03/26 10:09:44;;;;;;;0.20;0.20;;;;;;;19.91;46.67;100103.97;5054778;28;20082;-63
2023/03/26 10:12:19;;;;;;;0.20;0.20;;;;;;;19.75;47.50;100110.25;5054889;28;20059;-63
2023/03/26 10:15:23;;;;;;;0.20;0.20;;;;;;;19.75;47.70;100113.09;5054335;28;20032;-63
2023/03/26 10:17:49;;;;;;;;;;;;;;;19.90;47.37;100110.84;5043511;28;20033;-62
2023/03/26 10:20:49;;;;;;;0.20;0.20;;;;;;;19.35;49.23;100112.84;5070586;28;20344;-62
2023/03/26 10:23:48;;;;;;;0.20;0.20;;;;;;;20.00;49.20;100106.25;5055833;28;20108;-62
2023/03/26 10:26:38;;;;;;;0.20;0.20;;;;;;;21.55;46.89;100105.63;5054184;28;20052;-62
2023/03/26 10:29:35;;;;;;;0.20;0.20;;;;;;;23.12;42.41;100110.06;5053798;28;20108;-63
2023/03/26 10:32:19;;;;;;;0.20;0.20;;;;;;;23.27;40.67;100108.34;5054386;28;20029;-62
2023/03/26 10:35:09;;;;;;;0.20;0.20;;;;;;;23.73;40.84;100112.63;5053832;28;20023;-62
2023/03/26 10:37:51;;;;;;;0.20;0.20;;;;;;;23.51;40.68;100088.97;5054118;28;20537;-62
2023/03/26 10:40:22;;;;;;;0.20;0.20;;;;;;;23.93;39.50;100095.34;5054225;28;20036;-63
2023/03/26 10:43:15;;;;;;;0.20;0.20;;;;;;;24.82;39.44;100094.25;5054211;28;20475;-63
2023/03/26 10:46:12;;;;;;;0.20;0.20;;;;;;;24.85;39.18;100087.66;5054234;28;20036;-63
2023/03/26 10:48:43;;;;;;;0.20;0.20;;;;;;;24.85;38.55;100084.81;5053022;28;20074;-64
2023/03/26 10:51:54;;;;;;;0.20;0.20;;;;;;;24.87;38.65;100096.50;5053680;28;20021;-65
2023/03/26 10:54:38;;;;;;;0.20;0.20;;;;;;;24.47;39.03;100088.63;5048727;28;20041;-64
2023/03/26 10:57:16;;;;;;;0.10;0.10;;;;;;;24.37;39.11;100084.13;5054024;28;20024;-62
2023/03/26 10:59:42;;;;;;;0.10;0.10;;;;;;;24.16;39.37;100099.03;5054414;28;20407;-63
2023/03/26 11:02:28;;;;;;;0.20;0.20;;;;;;;23.27;40.62;100091.31;5076535;28;20028;-63
2023/03/26 11:05:18;;;;;;;0.20;0.20;;;;;;;22.91;42.38;100092.41;5076779;28;20024;-63
2023/03/26 11:08:13;;;;;;;0.10;0.10;;;;;;;23.09;41.83;100085.41;5076655;28;20478;-62
2023/03/26 11:11:12;;;;;;;0.20;0.20;;;;;;;23.07;42.43;100068.84;5092572;28;20031;-62
2023/03/26 11:13:57;;;;;;;0.20;0.20;;;;;;;22.64;43.01;100080.59;5039467;28;20526;-65
2023/03/26 11:16:28;;;;;;;0.20;0.20;;;;;;;22.22;43.59;100086.19;5076698;28;20024;-64
2023/03/26 11:19:31;;;;;;;0.20;0.20;;;;;;;21.82;44.99;100080.69;5076031;28;20036;-66
2023/03/26 11:22:02;;;;;;;0.10;0.10;;;;;;;22.09;44.75;100076.78;5076729;28;20536;-66
2023/03/26 11:24:41;;;;;;;0.20;0.20;;;;;;;21.62;44.88;100071.47;5076149;28;20028;-63
2023/03/26 11:27:23;;;;;;;0.20;0.20;;;;;;;21.83;45.07;100065.28;5094084;28;20036;-66
2023/03/26 11:30:06;;;;;;;0.20;0.20;;;;;;;22.33;44.65;100064.03;5094444;28;20032;-64
2023/03/26 11:33:06;;;;;;;0.20;0.20;;;;;;;22.07;45.69;100046.06;5095031;28;20024;-64
2023/03/26 11:35:37;;;;;;;0.20;0.20;;;;;;;21.75;46.91;100046.91;5094118;28;20058;-63
2023/03/26 11:38:16;;;;;;;0.20;0.20;;;;;;;21.37;45.83;100050.25;5076659;28;20039;-64
2023/03/26 11:40:49;;;;;;;0.20;0.20;;;;;;;21.33;45.69;100049.53;5093005;28;20031;-63
2023/03/26 11:43:19;;;;;;;0.20;0.20;;;;;;;21.19;46.90;100044.16;5076977;28;20031;-63
2023/03/26 11:45:52;;;;;;;0.20;0.20;;;;;;;21.26;47.12;100041.16;5076297;28;20041;-64
2023/03/26 11:48:43;;;;;;;0.15;0.15;;;;;;;21.12;47.13;100038.66;5092940;28;20024;-63
2023/03/26 11:51:24;;;;;;;0.20;0.20;;;;;;;21.01;47.94;100038.91;5075929;28;20047;-64
2023/03/26 11:53:49;;;;;;;0.20;0.20;;;;;;;21.05;46.52;100033.19;5076868;28;20027;-63
2023/03/26 11:56:24;;;;;;;0.20;0.20;;;;;;;21.16;47.01;100042.22;5075950;28;20039;-64